Augusta/Daniel Field, Georgia
Current Conditions -  °F | °C
As of 8:15 PM on Monday 22 Dec 2014 (Local Time) from KDNL Reporting Station
Haze Haze  
Wind Chill: 41°   Ceiling: 200
Heat Index: 46°   Visibility: 2mi
Dew Point: 44°   Wind: 9mph
Humidity: 93%   Direction: 60°ENE
Pressure: 29.98"   Gusts: NA
Location:  33.47°N, 82.03°W
Report Text: KDNL 230115Z AUTO 06008KT 2SM BR OVC002 08/07 A2998 RMK AO2 T00780067
Loading
Personal Weather Stations






























Interactive Weather Map New forecast layout! Learn more

10-Day Weather Forecast

Advertisements
Track Severe Weather on mobile